Time;durP1;ratioP1;P1;durP2;ratioP2;P2;SDS_P1;SDS_P2;PMS_P1;PMS_P2;Temp;Humidity;BMP_temperature;BMP_pressure;BME280_temperature;BME280_humidity;BME280_pressure;Samples;Min_cycle;Max_cycle;Signal;HPM_P1;HPM_P2
2022/10/20 00:00:42;;;;;;;23.95;13.57;;;;;;;;;;5074156;28;20049;-75
2022/10/20 00:03:09;;;;;;;20.83;13.40;;;;;;;;;;5074067;28;20040;-76
2022/10/20 00:05:35;;;;;;;23.95;13.05;;;;;;;;;;5069890;28;20049;-76
2022/10/20 00:08:01;;;;;;;21.85;12.85;;;;;;;;;;5068150;28;20049;-74
2022/10/20 00:10:28;;;;;;;24.13;13.18;;;;;;;;;;5072562;28;20045;-74
2022/10/20 00:12:54;;;;;;;26.05;13.68;;;;;;;;;;5073665;28;20047;-74
2022/10/20 00:15:20;;;;;;;22.58;12.52;;;;;;;;;;5073539;28;20047;-74
2022/10/20 00:17:47;;;;;;;26.15;13.05;;;;;;;;;;5073542;28;20055;-75
2022/10/20 00:20:13;;;;;;;22.08;13.05;;;;;;;;;;5073651;28;20048;-75
2022/10/20 00:22:44;;;;;;;23.70;12.85;;;;;;;;;;5073650;28;20048;-75
2022/10/20 00:25:11;;;;;;;19.85;11.75;;;;;;;;;;5072470;28;20052;-75
2022/10/20 00:27:37;;;;;;;17.48;11.55;;;;;;;;;;5073723;28;20047;-74
2022/10/20 00:30:04;;;;;;;23.83;12.30;;;;;;;;;;5073622;28;20052;-74
2022/10/20 00:32:30;;;;;;;21.02;12.52;;;;;;;;;;5073645;28;20048;-74
2022/10/20 00:34:56;;;;;;;22.95;11.70;;;;;;;;;;5073430;28;20052;-74
2022/10/20 00:37:23;;;;;;;20.88;11.57;;;;;;;;;;5073135;28;20067;-74
2022/10/20 00:39:49;;;;;;;22.77;11.43;;;;;;;;;;5073148;28;20049;-74
2022/10/20 00:42:17;;;;;;;20.42;11.50;;;;;;;;;;5073376;28;20080;-73
2022/10/20 00:44:46;;;;;;;20.00;11.18;;;;;;;;;;5073119;28;20055;-75
2022/10/20 00:47:15;;;;;;;19.05;10.82;;;;;;;;;;5073309;28;20050;-75
2022/10/20 00:49:42;;;;;;;22.77;10.77;;;;;;;;;;5073205;28;20045;-76
2022/10/20 00:52:09;;;;;;;23.43;10.97;;;;;;;;;;5072997;28;20055;-75
2022/10/20 00:54:36;;;;;;;20.52;11.40;;;;;;;;;;5073168;28;20053;-76
2022/10/20 00:57:03;;;;;;;24.15;11.00;;;;;;;;;;5073144;28;20400;-75
2022/10/20 00:59:31;;;;;;;21.95;11.88;;;;;;;;;;5073063;28;20083;-76
2022/10/20 01:01:59;;;;;;;22.08;12.07;;;;;;;;;;5072853;28;20055;-77
2022/10/20 01:04:28;;;;;;;33.63;13.13;;;;;;;;;;5073006;28;20103;-79
2022/10/20 01:06:55;;;;;;;20.60;12.77;;;;;;;;;;5072657;28;20048;-75
2022/10/20 01:09:21;;;;;;;24.70;12.37;;;;;;;;;;5065871;28;20051;-76
2022/10/20 01:11:59;;;;;;;26.13;12.27;;;;;;;;;;5072685;28;20277;-76
2022/10/20 01:14:34;;;;;;;24.27;12.38;;;;;;;;;;5071522;28;20051;-77
2022/10/20 01:17:12;;;;;;;27.85;11.98;;;;;;;;;;5072466;28;20044;-76
2022/10/20 01:19:38;;;;;;;28.33;12.45;;;;;;;;;;5072720;28;20071;-75
2022/10/20 01:22:17;;;;;;;20.92;10.73;;;;;;;;;;5072622;28;20103;-76
2022/10/20 01:24:52;;;;;;;19.92;10.95;;;;;;;;;;5072756;28;20051;-77
2022/10/20 01:27:22;;;;;;;25.75;11.23;;;;;;;;;;5071878;28;20041;-76
2022/10/20 01:30:08;;;;;;;25.67;10.50;;;;;;;;;;5072248;28;20508;-74
2022/10/20 01:32:47;;;;;;;22.73;9.98;;;;;;;;;;5065158;28;20052;-75
2022/10/20 01:35:23;;;;;;;23.48;10.02;;;;;;;;;;5072461;28;20052;-76
2022/10/20 01:38:00;;;;;;;24.33;9.03;;;;;;;;;;5072115;28;20059;-73
2022/10/20 01:40:26;;;;;;;20.08;8.65;;;;;;;;;;5071971;28;20300;-74
2022/10/20 01:42:55;;;;;;;19.08;8.30;;;;;;;;;;5071984;28;20586;-75
2022/10/20 01:45:24;;;;;;;18.52;7.82;;;;;;;;;;5071905;28;20049;-72
2022/10/20 01:47:52;;;;;;;18.77;8.82;;;;;;;;;;5072102;28;20044;-75
2022/10/20 01:50:19;;;;;;;22.08;8.75;;;;;;;;;;5071926;28;20055;-74
2022/10/20 01:52:46;;;;;;;18.80;7.53;;;;;;;;;;5071827;28;20044;-76
2022/10/20 01:55:13;;;;;;;24.02;9.05;;;;;;;;;;5070985;28;20051;-75
2022/10/20 01:57:39;;;;;;;20.73;7.97;;;;;;;;;;5072065;28;20060;-75
2022/10/20 02:00:07;;;;;;;19.30;7.55;;;;;;;;;;5071901;28;20044;-76
2022/10/20 02:02:46;;;;;;;20.83;7.57;;;;;;;;;;5071999;28;20052;-77
2022/10/20 02:05:12;;;;;;;20.92;8.23;;;;;;;;;;5072015;28;20056;-77
2022/10/20 02:07:40;;;;;;;15.80;7.28;;;;;;;;;;5071638;28;20056;-77
2022/10/20 02:10:13;;;;;;;19.27;7.53;;;;;;;;;;5071827;28;20055;-76
2022/10/20 02:12:40;;;;;;;19.17;7.10;;;;;;;;;;5071881;28;20480;-76
2022/10/20 02:15:09;;;;;;;18.83;7.18;;;;;;;;;;5071666;28;20048;-77
2022/10/20 02:17:36;;;;;;;23.40;7.65;;;;;;;;;;5072110;28;20059;-76
2022/10/20 02:20:04;;;;;;;18.13;7.17;;;;;;;;;;5071701;28;20055;-76
2022/10/20 02:22:30;;;;;;;16.67;6.82;;;;;;;;;;5062957;28;20067;-76
2022/10/20 02:24:58;;;;;;;18.03;6.07;;;;;;;;;;5066783;28;20141;-76
2022/10/20 02:27:35;;;;;;;19.95;6.85;;;;;;;;;;5071532;28;20287;-73
2022/10/20 02:30:05;;;;;;;16.15;6.47;;;;;;;;;;5071449;28;20511;-74
2022/10/20 02:32:32;;;;;;;23.00;6.90;;;;;;;;;;5071701;28;20044;-73
2022/10/20 02:35:01;;;;;;;18.08;7.25;;;;;;;;;;5071674;28;20044;-74
2022/10/20 02:37:32;;;;;;;23.45;7.18;;;;;;;;;;5071236;28;20065;-74
2022/10/20 02:39:59;;;;;;;19.98;7.22;;;;;;;;;;5072643;28;20106;-74
2022/10/20 02:42:25;;;;;;;23.35;6.85;;;;;;;;;;5075460;28;20043;-73
2022/10/20 02:44:52;;;;;;;22.13;6.47;;;;;;;;;;5075413;28;20480;-74
2022/10/20 02:47:19;;;;;;;21.95;6.20;;;;;;;;;;5075594;28;20056;-74
2022/10/20 02:49:46;;;;;;;18.65;6.00;;;;;;;;;;5075585;28;20048;-74
2022/10/20 02:52:13;;;;;;;22.17;5.85;;;;;;;;;;5075213;28;20062;-74
2022/10/20 02:54:39;;;;;;;17.40;5.90;;;;;;;;;;5075414;28;20048;-74
2022/10/20 02:57:05;;;;;;;13.48;5.32;;;;;;;;;;5075255;28;20281;-74
2022/10/20 02:59:32;;;;;;;16.92;5.90;;;;;;;;;;5075056;28;20036;-73
2022/10/20 03:01:58;;;;;;;17.23;6.00;;;;;;;;;;5075045;28;20044;-74
2022/10/20 03:04:25;;;;;;;19.92;5.43;;;;;;;;;;5075301;28;20048;-73
2022/10/20 03:06:56;;;;;;;17.35;6.03;;;;;;;;;;5075078;28;20056;-74
2022/10/20 03:09:22;;;;;;;15.48;5.55;;;;;;;;;;5074985;28;20048;-74
2022/10/20 03:11:49;;;;;;;18.77;6.32;;;;;;;;;;5074900;28;20059;-74
2022/10/20 03:14:15;;;;;;;21.50;6.32;;;;;;;;;;5074776;28;20052;-74
2022/10/20 03:16:41;;;;;;;15.68;5.63;;;;;;;;;;5074784;28;20048;-74
2022/10/20 03:19:08;;;;;;;12.38;5.68;;;;;;;;;;5074707;28;20048;-74
2022/10/20 03:21:37;;;;;;;19.27;5.88;;;;;;;;;;5074809;28;20427;-74
2022/10/20 03:24:03;;;;;;;12.75;5.25;;;;;;;;;;5075122;28;20048;-74
2022/10/20 03:26:30;;;;;;;17.42;6.63;;;;;;;;;;5074697;28;20075;-74
2022/10/20 03:28:56;;;;;;;17.83;6.60;;;;;;;;;;5074515;28;20083;-74
2022/10/20 03:31:22;;;;;;;16.05;6.28;;;;;;;;;;5074866;28;20060;-73
2022/10/20 03:33:49;;;;;;;17.23;6.35;;;;;;;;;;5074375;28;20492;-73
2022/10/20 03:36:15;;;;;;;20.05;6.22;;;;;;;;;;5074292;28;20049;-73
2022/10/20 03:38:42;;;;;;;13.88;5.88;;;;;;;;;;5073544;28;20056;-73
2022/10/20 03:41:08;;;;;;;17.88;5.82;;;;;;;;;;5073316;28;20052;-73
2022/10/20 03:43:35;;;;;;;16.98;5.50;;;;;;;;;;5073349;28;20051;-74
2022/10/20 03:46:05;;;;;;;17.65;4.53;;;;;;;;;;5073311;28;20071;-74
2022/10/20 03:48:31;;;;;;;17.35;5.15;;;;;;;;;;5073087;28;20055;-74
2022/10/20 03:51:01;;;;;;;27.55;5.20;;;;;;;;;;5072813;28;20059;-74
2022/10/20 03:53:27;;;;;;;20.08;5.78;;;;;;;;;;5073025;28;20054;-74
2022/10/20 03:55:54;;;;;;;13.70;4.63;;;;;;;;;;5072973;28;20048;-74
2022/10/20 03:58:20;;;;;;;21.98;6.20;;;;;;;;;;5073182;28;20296;-74
2022/10/20 04:00:47;;;;;;;16.42;5.70;;;;;;;;;;5071490;28;20058;-74
2022/10/20 04:03:13;;;;;;;20.67;5.90;;;;;;;;;;5073180;28;20068;-74
2022/10/20 04:05:40;;;;;;;20.58;5.72;;;;;;;;;;5072798;28;20053;-74
2022/10/20 04:08:06;;;;;;;19.35;5.55;;;;;;;;;;5073095;28;20041;-73
2022/10/20 04:10:33;;;;;;;16.60;4.97;;;;;;;;;;5072745;28;20056;-73
2022/10/20 04:13:00;;;;;;;17.35;5.25;;;;;;;;;;5072541;28;20048;-74
2022/10/20 04:15:26;;;;;;;15.43;5.50;;;;;;;;;;5073071;28;20051;-74
2022/10/20 04:17:53;;;;;;;15.18;5.18;;;;;;;;;;5072821;28;20048;-74
2022/10/20 04:20:20;;;;;;;13.77;5.53;;;;;;;;;;5072413;28;20044;-74
2022/10/20 04:22:46;;;;;;;18.40;6.15;;;;;;;;;;5072400;28;20059;-74
2022/10/20 04:25:12;;;;;;;18.02;5.28;;;;;;;;;;5071376;28;20054;-73
2022/10/20 04:27:39;;;;;;;21.20;5.72;;;;;;;;;;5072695;28;20041;-75
2022/10/20 04:30:06;;;;;;;15.83;4.90;;;;;;;;;;5072428;28;20048;-74
2022/10/20 04:32:32;;;;;;;22.00;5.50;;;;;;;;;;5072388;28;20285;-74
2022/10/20 04:34:59;;;;;;;21.70;6.18;;;;;;;;;;5072554;28;20052;-74
2022/10/20 04:37:25;;;;;;;15.23;5.50;;;;;;;;;;5066563;28;147909;-74
2022/10/20 04:39:51;;;;;;;14.60;5.43;;;;;;;;;;5072711;28;20488;-74
2022/10/20 04:42:18;;;;;;;16.75;5.35;;;;;;;;;;5073071;28;20051;-74
2022/10/20 04:44:45;;;;;;;17.00;5.60;;;;;;;;;;5073449;28;20072;-74
2022/10/20 04:47:11;;;;;;;17.13;5.57;;;;;;;;;;5073079;28;20277;-74
2022/10/20 04:49:39;;;;;;;15.75;4.82;;;;;;;;;;5073140;28;20051;-74
2022/10/20 04:52:05;;;;;;;15.45;5.10;;;;;;;;;;5072968;28;20045;-74
2022/10/20 04:54:32;;;;;;;19.33;5.25;;;;;;;;;;5073313;28;20051;-74
2022/10/20 04:56:58;;;;;;;15.90;5.47;;;;;;;;;;5072926;28;20058;-74
2022/10/20 04:59:24;;;;;;;16.27;5.28;;;;;;;;;;5072887;28;20048;-74
2022/10/20 05:01:51;;;;;;;17.90;5.10;;;;;;;;;;5072643;28;20079;-75
2022/10/20 05:04:20;;;;;;;21.77;5.40;;;;;;;;;;5072471;28;20116;-75
2022/10/20 05:06:47;;;;;;;14.55;4.70;;;;;;;;;;5072992;28;20052;-75
2022/10/20 05:09:14;;;;;;;18.98;4.85;;;;;;;;;;5072605;28;20547;-75
2022/10/20 05:11:41;;;;;;;15.32;4.82;;;;;;;;;;5071420;28;20052;-75
2022/10/20 05:14:07;;;;;;;14.82;5.28;;;;;;;;;;5072538;28;20063;-75
2022/10/20 05:16:34;;;;;;;18.38;5.05;;;;;;;;;;5072581;28;20048;-75
2022/10/20 05:19:00;;;;;;;13.32;4.35;;;;;;;;;;5072769;28;20052;-75
2022/10/20 05:21:27;;;;;;;19.73;5.05;;;;;;;;;;5072590;28;20082;-75
2022/10/20 05:23:55;;;;;;;10.82;3.95;;;;;;;;;;5072512;28;20055;-75
2022/10/20 05:26:22;;;;;;;15.15;4.78;;;;;;;;;;5071198;28;20507;-75
2022/10/20 05:28:50;;;;;;;17.75;4.55;;;;;;;;;;5072355;28;20049;-75
2022/10/20 05:31:16;;;;;;;;;;;;;;;;;;5073014;28;20056;-75
2022/10/20 05:33:44;;;;;;;14.18;4.28;;;;;;;;;;5072397;28;19924;-75
2022/10/20 05:36:12;;;;;;;22.38;4.30;;;;;;;;;;5072218;28;20052;-75
2022/10/20 05:38:45;;;;;;;19.35;4.47;;;;;;;;;;5072450;28;20102;-75
2022/10/20 05:41:12;;;;;;;19.77;4.70;;;;;;;;;;5072293;28;20048;-75
2022/10/20 05:43:39;;;;;;;14.88;4.50;;;;;;;;;;5072331;28;20411;-75
2022/10/20 05:46:06;;;;;;;24.15;4.70;;;;;;;;;;5071982;28;20412;-75
2022/10/20 05:48:32;;;;;;;17.87;4.43;;;;;;;;;;5070770;28;20044;-74
2022/10/20 05:51:09;;;;;;;20.52;4.53;;;;;;;;;;5071930;28;20281;-73
2022/10/20 05:53:40;;;;;;;14.25;4.53;;;;;;;;;;5071979;28;20059;-73
2022/10/20 05:56:07;;;;;;;20.63;4.47;;;;;;;;;;5072130;28;20051;-74
2022/10/20 05:58:34;;;;;;;16.20;4.40;;;;;;;;;;5071836;28;20055;-76
2022/10/20 06:01:15;;;;;;;18.23;4.90;;;;;;;;;;5071597;28;20044;-76
2022/10/20 06:03:45;;;;;;;19.25;4.72;;;;;;;;;;5070564;28;20050;-76
2022/10/20 06:06:12;;;;;;;14.95;3.97;;;;;;;;;;5071378;28;20506;-75
2022/10/20 06:08:38;;;;;;;16.65;4.25;;;;;;;;;;5071651;28;20052;-74
2022/10/20 06:11:08;;;;;;;14.57;3.97;;;;;;;;;;5071829;28;20106;-75
2022/10/20 06:13:35;;;;;;;14.15;3.63;;;;;;;;;;5064204;28;20056;-75
2022/10/20 06:16:02;;;;;;;20.55;4.85;;;;;;;;;;5063482;28;20058;-75
2022/10/20 06:18:29;;;;;;;19.25;3.83;;;;;;;;;;5071609;28;20044;-75
2022/10/20 06:21:03;;;;;;;18.02;3.92;;;;;;;;;;5071482;28;20050;-74
2022/10/20 06:23:29;;;;;;;16.98;3.78;;;;;;;;;;5057679;28;20049;-72
2022/10/20 06:26:00;;;;;;;14.93;3.47;;;;;;;;;;5071106;28;20045;-72
2022/10/20 06:28:28;;;;;;;18.90;3.17;;;;;;;;;;5071449;28;20048;-73
2022/10/20 06:30:54;;;;;;;14.38;3.38;;;;;;;;;;5071710;28;20052;-73
2022/10/20 06:33:20;;;;;;;12.98;3.08;;;;;;;;;;5059151;28;20512;-74
2022/10/20 06:35:47;;;;;;;13.52;3.13;;;;;;;;;;5068238;28;20492;-76
2022/10/20 06:38:13;;;;;;;17.38;3.20;;;;;;;;;;5071254;28;20056;-73
2022/10/20 06:40:39;;;;;;;10.10;3.00;;;;;;;;;;5071617;28;20048;-73
2022/10/20 06:43:06;;;;;;;13.27;2.78;;;;;;;;;;5071192;28;20056;-74
2022/10/20 06:45:32;;;;;;;12.77;3.03;;;;;;;;;;5058909;28;20068;-72
2022/10/20 06:47:58;;;;;;;11.60;3.00;;;;;;;;;;5067379;28;20048;-74
2022/10/20 06:50:25;;;;;;;11.45;3.17;;;;;;;;;;5068057;28;20495;-74
2022/10/20 06:52:51;;;;;;;14.00;3.40;;;;;;;;;;5059919;28;20136;-74
2022/10/20 06:55:18;;;;;;;11.20;3.58;;;;;;;;;;5071290;28;20049;-74
2022/10/20 06:57:44;;;;;;;11.65;3.35;;;;;;;;;;5071043;28;20469;-73
2022/10/20 07:00:11;;;;;;;17.35;3.72;;;;;;;;;;5071082;28;20055;-73
2022/10/20 07:02:38;;;;;;;13.98;3.95;;;;;;;;;;5071156;28;20407;-73
2022/10/20 07:05:05;;;;;;;13.80;3.55;;;;;;;;;;5071271;28;20055;-73
2022/10/20 07:07:31;;;;;;;11.30;3.58;;;;;;;;;;5069875;28;20044;-73
2022/10/20 07:09:57;;;;;;;14.80;4.28;;;;;;;;;;5071351;28;20041;-73
2022/10/20 07:12:24;;;;;;;15.68;3.90;;;;;;;;;;5071383;28;20052;-73
2022/10/20 07:14:50;;;;;;;16.35;4.18;;;;;;;;;;5070946;28;20055;-73
2022/10/20 07:17:17;;;;;;;13.63;4.70;;;;;;;;;;5070943;28;20076;-73
2022/10/20 07:19:43;;;;;;;13.23;3.72;;;;;;;;;;5070973;28;20515;-73
2022/10/20 07:22:09;;;;;;;12.82;3.85;;;;;;;;;;5071213;28;20037;-73
2022/10/20 07:24:36;;;;;;;9.43;3.00;;;;;;;;;;5071255;28;20068;-73
2022/10/20 07:27:02;;;;;;;8.60;3.28;;;;;;;;;;5073739;28;20044;-73
2022/10/20 07:29:28;;;;;;;13.75;3.55;;;;;;;;;;5074662;28;20053;-73
2022/10/20 07:31:55;;;;;;;9.25;3.53;;;;;;;;;;5075021;28;20080;-73
2022/10/20 07:34:26;;;;;;;18.75;4.53;;;;;;;;;;5074471;28;20492;-73
2022/10/20 07:36:54;;;;;;;11.60;4.07;;;;;;;;;;5074490;28;20056;-73
2022/10/20 07:39:21;;;;;;;16.20;4.85;;;;;;;;;;5073178;28;20492;-73
2022/10/20 07:41:48;;;;;;;10.38;3.35;;;;;;;;;;5073240;28;20074;-73
2022/10/20 07:44:15;;;;;;;10.32;3.35;;;;;;;;;;5074601;28;20063;-72
2022/10/20 07:46:41;;;;;;;11.32;3.20;;;;;;;;;;5074311;28;20556;-73
2022/10/20 07:49:08;;;;;;;8.05;2.78;;;;;;;;;;5074457;28;20071;-73
2022/10/20 07:51:54;;;;;;;11.35;2.92;;;;;;;;;;5074217;28;20404;-73
2022/10/20 07:54:21;;;;;;;10.63;2.70;;;;;;;;;;5074285;28;20040;-73
2022/10/20 07:56:48;;;;;;;14.55;2.85;;;;;;;;;;5074270;28;20054;-72
2022/10/20 07:59:14;;;;;;;10.32;2.72;;;;;;;;;;5074328;28;20484;-72
2022/10/20 08:01:41;;;;;;;13.70;2.83;;;;;;;;;;5074128;28;20040;-72
2022/10/20 08:04:07;;;;;;;10.00;2.85;;;;;;;;;;5073988;28;20508;-72
2022/10/20 08:06:34;;;;;;;13.50;2.67;;;;;;;;;;5073966;28;20048;-73
2022/10/20 08:09:00;;;;;;;12.48;2.90;;;;;;;;;;5074211;28;20049;-73
2022/10/20 08:11:27;;;;;;;11.32;2.78;;;;;;;;;;5073855;28;20044;-73
2022/10/20 08:13:53;;;;;;;13.65;3.10;;;;;;;;;;5073762;28;20488;-72
2022/10/20 08:16:20;;;;;;;13.88;3.70;;;;;;;;;;5073785;28;20048;-72
2022/10/20 08:18:49;;;;;;;13.52;3.40;;;;;;;;;;5073718;28;20059;-72
2022/10/20 08:21:42;;;;;;;18.13;3.22;;;;;;;;;;5011449;28;20057;-72
2022/10/20 08:24:08;;;;;;;12.25;3.50;;;;;;;;;;5016785;28;20050;-72
2022/10/20 08:26:34;;;;;;;12.40;3.17;;;;;;;;;;5073690;28;20063;-72
2022/10/20 08:29:01;;;;;;;10.55;3.33;;;;;;;;;;5073703;28;20123;-72
2022/10/20 08:31:28;;;;;;;17.37;3.00;;;;;;;;;;5073502;28;20797;-72
2022/10/20 08:33:55;;;;;;;12.68;3.53;;;;;;;;;;5073589;28;20075;-72
2022/10/20 08:36:22;;;;;;;10.68;3.35;;;;;;;;;;5073150;28;20052;-72
2022/10/20 08:38:48;;;;;;;12.90;3.00;;;;;;;;;;5072088;28;20055;-72
2022/10/20 08:41:17;;;;;;;12.15;2.80;;;;;;;;;;5073045;28;20049;-72
2022/10/20 08:43:44;;;;;;;8.95;2.75;;;;;;;;;;5073367;28;20045;-72
2022/10/20 08:46:16;;;;;;;12.75;3.25;;;;;;;;;;5073240;28;20047;-72
2022/10/20 08:48:47;;;;;;;8.23;2.78;;;;;;;;;;5073437;28;20071;-72
2022/10/20 08:51:18;;;;;;;16.03;3.50;;;;;;;;;;5073402;28;20044;-72
2022/10/20 08:53:45;;;;;;;8.23;2.42;;;;;;;;;;5073313;28;20392;-72
2022/10/20 08:56:12;;;;;;;10.80;2.42;;;;;;;;;;5073231;28;20051;-72
2022/10/20 08:58:43;;;;;;;9.20;2.30;;;;;;;;;;5072880;28;20500;-72
2022/10/20 09:01:18;;;;;;;8.27;2.83;;;;;;;;;;5072742;28;20299;-72
2022/10/20 09:03:46;;;;;;;11.48;2.88;;;;;;;;;;5072845;28;20059;-72
2022/10/20 09:06:14;;;;;;;7.70;2.83;;;;;;;;;;5072823;28;20048;-72
2022/10/20 09:08:41;;;;;;;10.75;3.13;;;;;;;;;;5072922;28;20049;-72
2022/10/20 09:11:10;;;;;;;7.63;2.97;;;;;;;;;;5072721;28;20102;-72
2022/10/20 09:13:36;;;;;;;10.65;3.03;;;;;;;;;;5072661;28;20044;-72
2022/10/20 09:16:11;;;;;;;7.95;2.28;;;;;;;;;;5072366;28;20053;-72
2022/10/20 09:18:55;;;;;;;11.02;2.13;;;;;;;;;;5072746;28;20045;-72
2022/10/20 09:21:21;;;;;;;8.73;1.90;;;;;;;;;;5072319;28;20045;-72
2022/10/20 09:23:52;;;;;;;11.98;2.33;;;;;;;;;;5072549;28;20041;-72
2022/10/20 09:26:27;;;;;;;10.98;2.17;;;;;;;;;;5071134;28;20048;-72
2022/10/20 09:29:18;;;;;;;7.85;1.95;;;;;;;;;;5072248;28;20392;-72
2022/10/20 09:31:52;;;;;;;8.65;1.52;;;;;;;;;;5072205;28;20062;-72
2022/10/20 09:34:20;;;;;;;8.45;1.80;;;;;;;;;;5072237;28;20053;-72
2022/10/20 09:36:46;;;;;;;;;;;;;;;;;;5072370;28;20495;-72
2022/10/20 09:39:20;;;;;;;9.63;1.60;;;;;;;;;;5072450;28;19943;-72
2022/10/20 09:41:47;;;;;;;6.43;1.27;;;;;;;;;;5072280;28;20096;-72
2022/10/20 09:44:15;;;;;;;8.80;1.98;;;;;;;;;;5070752;28;20044;-72
2022/10/20 09:46:47;;;;;;;8.90;1.90;;;;;;;;;;5072260;28;20053;-72
2022/10/20 09:49:30;;;;;;;7.40;1.90;;;;;;;;;;5071649;28;20415;-72
2022/10/20 09:51:58;;;;;;;6.03;1.70;;;;;;;;;;5071948;28;20048;-72
2022/10/20 09:54:24;;;;;;;;;;;;;;;;;;5072631;28;20127;-72
2022/10/20 09:56:51;;;;;;;6.18;1.90;;;;;;;;;;5072086;28;19920;-72
2022/10/20 09:59:18;;;;;;;5.47;1.73;;;;;;;;;;5070869;28;20096;-72
2022/10/20 10:01:54;;;;;;;6.53;1.60;;;;;;;;;;5071842;28;20041;-72
2022/10/20 10:04:31;;;;;;;7.03;1.45;;;;;;;;;;5071782;28;20510;-72
2022/10/20 10:06:58;;;;;;;8.88;1.63;;;;;;;;;;5071803;28;20055;-72
2022/10/20 10:09:33;;;;;;;10.23;2.15;;;;;;;;;;5071882;28;20040;-72
2022/10/20 10:12:09;;;;;;;7.03;2.17;;;;;;;;;;5071722;28;20148;-72
2022/10/20 10:14:35;;;;;;;5.00;1.60;;;;;;;;;;5071654;28;20044;-72
2022/10/20 10:17:02;;;;;;;7.25;1.50;;;;;;;;;;5071596;28;20052;-72
2022/10/20 10:19:30;;;;;;;4.97;0.95;;;;;;;;;;5071972;28;20060;-72
2022/10/20 10:21:58;;;;;;;7.75;1.30;;;;;;;;;;5071557;28;20047;-72
2022/10/20 10:24:39;;;;;;;3.20;1.08;;;;;;;;;;5071917;28;20055;-71
2022/10/20 10:27:19;;;;;;;6.50;1.20;;;;;;;;;;5071636;28;20063;-72
2022/10/20 10:29:45;;;;;;;5.10;1.17;;;;;;;;;;5071791;28;20047;-72
2022/10/20 10:32:15;;;;;;;7.53;1.13;;;;;;;;;;5071445;28;20517;-71
2022/10/20 10:35:00;;;;;;;4.90;1.20;;;;;;;;;;5071641;28;20055;-72
2022/10/20 10:37:30;;;;;;;6.45;1.08;;;;;;;;;;5071399;28;20050;-72
2022/10/20 10:40:01;;;;;;;5.35;1.15;;;;;;;;;;5071490;28;20092;-72
2022/10/20 10:42:27;;;;;;;5.82;1.30;;;;;;;;;;5071531;28;20400;-72
2022/10/20 10:45:18;;;;;;;7.20;1.63;;;;;;;;;;5071414;28;20128;-72
2022/10/20 10:47:53;;;;;;;7.50;1.85;;;;;;;;;;5071763;28;20058;-72
2022/10/20 10:50:29;;;;;;;8.02;1.75;;;;;;;;;;5071555;28;20048;-72
2022/10/20 10:52:56;;;;;;;10.27;1.92;;;;;;;;;;5071357;28;20059;-72
2022/10/20 10:55:26;;;;;;;6.95;1.60;;;;;;;;;;5071616;28;20052;-72
2022/10/20 10:58:25;;;;;;;8.60;1.60;;;;;;;;;;5071489;28;20056;-72
2022/10/20 11:01:06;;;;;;;5.47;1.33;;;;;;;;;;5071754;28;20056;-72
2022/10/20 11:03:35;;;;;;;5.68;1.30;;;;;;;;;;5073930;28;20565;-72
2022/10/20 11:06:15;;;;;;;6.45;1.38;;;;;;;;;;5075202;28;20476;-72
2022/10/20 11:08:42;;;;;;;5.90;1.45;;;;;;;;;;5075212;28;20142;-72
2022/10/20 11:11:17;;;;;;;9.85;1.70;;;;;;;;;;5075222;28;20068;-72
2022/10/20 11:13:56;;;;;;;7.22;2.10;;;;;;;;;;5075313;28;20056;-72
2022/10/20 11:16:22;;;;;;;6.03;1.77;;;;;;;;;;5074939;28;20044;-72
2022/10/20 11:19:07;;;;;;;8.65;2.25;;;;;;;;;;5074908;28;20059;-72
2022/10/20 11:21:33;;;;;;;6.82;2.17;;;;;;;;;;5074906;28;20048;-72
2022/10/20 11:24:03;;;;;;;6.13;2.50;;;;;;;;;;5075044;28;20055;-72
2022/10/20 11:26:32;;;;;;;6.97;2.35;;;;;;;;;;5074703;28;20513;-72
2022/10/20 11:28:59;;;;;;;9.48;2.17;;;;;;;;;;5075675;28;20071;-72
2022/10/20 11:31:31;;;;;;;9.23;2.28;;;;;;;;;;5075220;28;20063;-72
2022/10/20 11:34:05;;;;;;;7.32;1.80;;;;;;;;;;5074476;28;20051;-72
2022/10/20 11:36:35;;;;;;;8.50;1.85;;;;;;;;;;5074481;28;20052;-72
2022/10/20 11:39:03;;;;;;;7.82;1.70;;;;;;;;;;5074522;28;20063;-71
2022/10/20 11:41:32;;;;;;;7.60;2.03;;;;;;;;;;5074609;28;20049;-72
2022/10/20 11:44:20;;;;;;;8.52;2.10;;;;;;;;;;5074606;28;20040;-72
2022/10/20 11:46:48;;;;;;;8.23;2.08;;;;;;;;;;5074250;28;20045;-72
2022/10/20 11:49:15;;;;;;;5.88;1.48;;;;;;;;;;5074467;28;20046;-71
2022/10/20 11:51:50;;;;;;;8.27;1.58;;;;;;;;;;5074532;28;20067;-72
2022/10/20 11:54:35;;;;;;;5.90;1.48;;;;;;;;;;5074141;28;20051;-72
2022/10/20 11:57:08;;;;;;;3.90;0.90;;;;;;;;;;5073997;28;20056;-72
2022/10/20 11:59:37;;;;;;;3.10;0.93;;;;;;;;;;5074333;28;20055;-71
2022/10/20 12:02:23;;;;;;;5.32;1.23;;;;;;;;;;5074044;28;20048;-72
2022/10/20 12:05:12;;;;;;;4.32;1.02;;;;;;;;;;5074149;28;20052;-72
2022/10/20 12:07:39;;;;;;;5.20;1.15;;;;;;;;;;5054429;28;20074;-72
2022/10/20 12:10:05;;;;;;;3.60;1.08;;;;;;;;;;5073812;28;20048;-72
2022/10/20 12:12:36;;;;;;;6.55;1.27;;;;;;;;;;5073457;28;20405;-72
2022/10/20 12:15:16;;;;;;;4.28;1.10;;;;;;;;;;5074060;28;20057;-72
2022/10/20 12:17:45;;;;;;;4.72;1.27;;;;;;;;;;5073775;28;20064;-72
2022/10/20 12:20:21;;;;;;;4.57;1.38;;;;;;;;;;5073713;28;20735;-72
2022/10/20 12:22:49;;;;;;;2.85;0.95;;;;;;;;;;5073655;28;20048;-72
2022/10/20 12:25:24;;;;;;;3.75;0.85;;;;;;;;;;5073591;28;20047;-72
2022/10/20 12:28:09;;;;;;;2.63;0.52;;;;;;;;;;5073908;28;20045;-72
2022/10/20 12:30:41;;;;;;;2.70;0.65;;;;;;;;;;5073773;28;20040;-72
2022/10/20 12:33:15;;;;;;;4.20;0.63;;;;;;;;;;5073470;28;20484;-72
2022/10/20 12:35:56;;;;;;;4.07;0.93;;;;;;;;;;5073432;28;20048;-72
2022/10/20 12:38:23;;;;;;;3.33;0.60;;;;;;;;;;5073359;28;20060;-72
2022/10/20 12:40:56;;;;;;;3.00;0.40;;;;;;;;;;5073601;28;20048;-72
2022/10/20 12:43:23;;;;;;;3.25;0.70;;;;;;;;;;5073315;28;20548;-70
2022/10/20 12:45:49;;;;;;;2.20;0.40;;;;;;;;;;5073145;28;20484;-70
2022/10/20 12:48:19;;;;;;;2.50;0.50;;;;;;;;;;5073449;28;20048;-70
2022/10/20 12:50:48;;;;;;;1.35;0.30;;;;;;;;;;5073066;28;20131;-70
2022/10/20 12:53:14;;;;;;;2.45;0.50;;;;;;;;;;5072038;28;20055;-70
2022/10/20 12:55:41;;;;;;;2.53;0.50;;;;;;;;;;5073233;28;20098;-72
2022/10/20 12:58:11;;;;;;;0.90;0.40;;;;;;;;;;5073000;28;20052;-71
2022/10/20 13:00:37;;;;;;;1.95;0.22;;;;;;;;;;5072896;28;20044;-72
2022/10/20 13:03:23;;;;;;;1.52;0.40;;;;;;;;;;5072794;28;20071;-72
2022/10/20 13:05:51;;;;;;;2.25;0.32;;;;;;;;;;5072689;28;20118;-72
2022/10/20 13:08:17;;;;;;;3.58;0.50;;;;;;;;;;5073038;28;20048;-72
2022/10/20 13:10:44;;;;;;;1.88;0.22;;;;;;;;;;5072932;28;20044;-72
2022/10/20 13:13:11;;;;;;;1.20;0.47;;;;;;;;;;5072773;28;20048;-73
2022/10/20 13:15:43;;;;;;;1.85;0.20;;;;;;;;;;5072832;28;20056;-72
2022/10/20 13:18:12;;;;;;;2.72;0.75;;;;;;;;;;5072730;28;20060;-72
2022/10/20 13:20:41;;;;;;;3.20;0.60;;;;;;;;;;5072544;28;20055;-72
2022/10/20 13:23:11;;;;;;;2.88;0.55;;;;;;;;;;5072289;28;20044;-72
2022/10/20 13:25:39;;;;;;;3.63;0.77;;;;;;;;;;5072856;28;20036;-72
2022/10/20 13:28:05;;;;;;;3.72;1.23;;;;;;;;;;5072597;28;20055;-72
2022/10/20 13:30:33;;;;;;;3.78;0.77;;;;;;;;;;5072330;28;20044;-72
2022/10/20 13:32:59;;;;;;;4.40;0.90;;;;;;;;;;5072282;28;20052;-72
2022/10/20 13:35:50;;;;;;;4.00;0.90;;;;;;;;;;5072237;28;20048;-72
2022/10/20 13:38:27;;;;;;;4.80;0.90;;;;;;;;;;5072126;28;20060;-72
2022/10/20 13:41:07;;;;;;;4.18;0.68;;;;;;;;;;5072229;28;20058;-71
2022/10/20 13:43:50;;;;;;;3.05;0.90;;;;;;;;;;5071985;28;20506;-71
2022/10/20 13:46:23;;;;;;;3.63;0.70;;;;;;;;;;5072120;28;20399;-71
2022/10/20 13:49:03;;;;;;;4.65;1.02;;;;;;;;;;5072122;28;20052;-71
2022/10/20 13:51:31;;;;;;;4.05;1.00;;;;;;;;;;5072286;28;20048;-71
2022/10/20 13:54:00;;;;;;;5.15;0.80;;;;;;;;;;5072246;28;20056;-71
2022/10/20 13:56:34;;;;;;;4.40;0.80;;;;;;;;;;5072076;28;20048;-71
2022/10/20 13:59:02;;;;;;;6.63;1.17;;;;;;;;;;5070755;28;20479;-71
2022/10/20 14:01:32;;;;;;;3.83;0.85;;;;;;;;;;5072179;28;20048;-71
2022/10/20 14:03:59;;;;;;;4.10;0.80;;;;;;;;;;5071695;28;20055;-71
2022/10/20 14:06:32;;;;;;;2.60;0.68;;;;;;;;;;5072171;28;20045;-71
2022/10/20 14:09:07;;;;;;;6.03;0.70;;;;;;;;;;5071925;28;20048;-71
2022/10/20 14:11:33;;;;;;;3.42;0.80;;;;;;;;;;5072152;28;20056;-71
2022/10/20 14:14:00;;;;;;;5.35;0.73;;;;;;;;;;5072079;28;20059;-71
2022/10/20 14:16:28;;;;;;;4.43;0.83;;;;;;;;;;5071914;28;20054;-71
2022/10/20 14:18:54;;;;;;;;;;;;;;;;;;5072331;28;20053;-71
2022/10/20 14:21:20;;;;;;;2.10;0.57;;;;;;;;;;5071653;28;19931;-71
2022/10/20 14:23:48;;;;;;;6.10;0.90;;;;;;;;;;5071501;28;20408;-71
2022/10/20 14:26:14;;;;;;;;;;;;;;;;;;5072156;28;20055;-71
2022/10/20 14:28:42;;;;;;;3.75;0.47;;;;;;;;;;5071568;28;19924;-71
2022/10/20 14:31:09;;;;;;;4.22;0.80;;;;;;;;;;5071696;28;20487;-71
2022/10/20 14:33:40;;;;;;;3.25;0.75;;;;;;;;;;5071391;28;20499;-71
2022/10/20 14:36:15;;;;;;;4.45;1.13;;;;;;;;;;5075046;28;20060;-71
2022/10/20 14:38:44;;;;;;;7.45;0.80;;;;;;;;;;5075677;28;20056;-71
2022/10/20 14:41:11;;;;;;;5.13;1.08;;;;;;;;;;5075600;28;20055;-71
2022/10/20 14:43:38;;;;;;;4.45;0.90;;;;;;;;;;5075393;28;20048;-71
2022/10/20 14:46:06;;;;;;;4.60;1.10;;;;;;;;;;5074229;28;20091;-71
2022/10/20 14:48:37;;;;;;;5.57;1.02;;;;;;;;;;5075512;28;20570;-71